Time;durP1;ratioP1;P1;durP2;ratioP2;P2;SDS_P1;SDS_P2;PMS_P1;PMS_P2;Temp;Humidity;BMP_temperature;BMP_pressure;BME280_temperature;BME280_humidity;BME280_pressure;Samples;Min_cycle;Max_cycle;Signal;HPM_P1;HPM_P2
2021/09/01 00:02:17;;;;;;;8.73;4.15;;;;;;;15.93;100.00;101626.56;5190567;28;20064;-78
2021/09/01 00:04:48;;;;;;;9.35;3.80;;;;;;;15.79;100.00;101619.22;5186820;28;20014;-78
2021/09/01 00:07:18;;;;;;;6.75;3.58;;;;;;;15.87;100.00;101625.03;5191898;28;20048;-80
2021/09/01 00:09:48;;;;;;;10.35;4.43;;;;;;;15.85;100.00;101621.63;5185711;28;20022;-79
2021/09/01 00:12:18;;;;;;;8.90;4.00;;;;;;;15.92;100.00;101633.66;5187130;28;20029;-78
2021/09/01 00:14:49;;;;;;;9.13;4.38;;;;;;;15.92;100.00;101631.00;5189613;28;20292;-80
2021/09/01 00:17:19;;;;;;;9.55;4.13;;;;;;;16.01;100.00;101624.50;5193010;28;20099;-78
2021/09/01 00:19:49;;;;;;;9.60;4.20;;;;;;;15.92;100.00;101624.88;5184567;28;20021;-77
2021/09/01 00:22:20;;;;;;;11.00;4.63;;;;;;;15.81;100.00;101627.94;5192127;28;20276;-77
2021/09/01 00:24:50;;;;;;;12.82;4.97;;;;;;;15.80;100.00;101623.59;5174877;28;20114;-77
2021/09/01 00:27:20;;;;;;;9.90;4.53;;;;;;;15.86;100.00;101622.50;5192814;28;20036;-80
2021/09/01 00:29:51;;;;;;;11.23;4.60;;;;;;;15.85;100.00;101629.53;5195197;28;20056;-82
2021/09/01 00:32:21;;;;;;;13.05;5.28;;;;;;;15.75;100.00;101627.31;5192667;28;20037;-78
2021/09/01 00:34:52;;;;;;;10.95;5.20;;;;;;;15.79;100.00;101629.78;5193665;28;20118;-79
2021/09/01 00:37:23;;;;;;;12.05;5.13;;;;;;;15.79;100.00;101635.06;5197676;28;20080;-79
2021/09/01 00:39:53;;;;;;;8.23;5.15;;;;;;;15.87;100.00;101632.94;5196569;28;20448;-79
2021/09/01 00:42:23;;;;;;;11.83;5.07;;;;;;;15.77;100.00;101631.63;5195391;28;20056;-80
2021/09/01 00:44:54;;;;;;;13.85;5.10;;;;;;;15.75;100.00;101633.47;5187851;28;20758;-79
2021/09/01 00:47:24;;;;;;;9.82;5.18;;;;;;;15.79;100.00;101623.63;5192565;28;20039;-77
2021/09/01 00:49:54;;;;;;;10.18;5.28;;;;;;;15.74;100.00;101626.44;5187903;28;20051;-78
2021/09/01 00:52:25;;;;;;;13.88;5.55;;;;;;;15.76;100.00;101634.31;5192739;28;20553;-77
2021/09/01 00:54:56;;;;;;;12.73;5.65;;;;;;;15.75;100.00;101638.75;5193218;28;20025;-80
2021/09/01 00:57:27;;;;;;;15.20;6.22;;;;;;;15.72;100.00;101632.72;5194530;28;20471;-79
2021/09/01 00:59:57;;;;;;;14.00;6.05;;;;;;;15.60;100.00;101631.44;5193997;28;20028;-78
2021/09/01 01:02:27;;;;;;;10.38;5.45;;;;;;;15.67;100.00;101627.63;5195534;28;20079;-79
2021/09/01 01:04:58;;;;;;;14.63;5.65;;;;;;;15.79;100.00;101637.69;5195799;28;20017;-80
2021/09/01 01:07:28;;;;;;;14.77;5.70;;;;;;;15.74;100.00;101642.25;5195513;28;20059;-79
2021/09/01 01:09:58;;;;;;;11.15;5.47;;;;;;;15.68;100.00;101639.03;5193433;28;20038;-78
2021/09/01 01:12:28;;;;;;;13.87;5.63;;;;;;;15.63;100.00;101639.22;5193915;28;20036;-79
2021/09/01 01:14:59;;;;;;;16.25;5.93;;;;;;;15.56;100.00;101632.44;5193525;28;20342;-79
2021/09/01 01:17:29;;;;;;;11.10;5.90;;;;;;;15.72;100.00;101630.09;5191377;28;20034;-78
2021/09/01 01:19:59;;;;;;;11.50;5.32;;;;;;;15.76;100.00;101629.91;5183317;28;20041;-78
2021/09/01 01:22:30;;;;;;;13.00;5.33;;;;;;;15.72;100.00;101628.28;5191033;28;20091;-77
2021/09/01 01:25:03;;;;;;;12.80;5.55;;;;;;;15.66;100.00;101633.81;5192803;28;20810;-79
2021/09/01 01:27:36;;;;;;;9.98;5.18;;;;;;;15.71;100.00;101631.84;5192633;28;20491;-78
2021/09/01 01:30:20;;;;;;;14.40;5.07;;;;;;;15.65;100.00;101632.09;5191266;28;20112;-79
2021/09/01 01:32:53;;;;;;;13.30;5.53;;;;;;;15.70;100.00;101630.13;5186683;28;20022;-79
2021/09/01 01:35:29;;;;;;;9.25;4.90;;;;;;;15.65;100.00;101637.38;5187105;28;20030;-78
2021/09/01 01:38:00;;;;;;;;;;;;;;;15.75;100.00;101636.09;5175830;28;20108;-78
2021/09/01 01:40:31;;;;;;;12.80;4.88;;;;;;;15.73;100.00;101635.28;5192307;28;19914;-80
2021/09/01 01:43:02;;;;;;;13.10;4.93;;;;;;;15.72;100.00;101636.19;5193013;28;20033;-79
2021/09/01 01:45:35;;;;;;;12.02;4.85;;;;;;;15.56;100.00;101642.16;5192211;28;20034;-78
2021/09/01 01:48:08;;;;;;;12.82;5.82;;;;;;;15.57;100.00;101636.78;5189456;28;20399;-79
2021/09/01 01:50:40;;;;;;;10.27;5.25;;;;;;;15.54;100.00;101642.19;5175126;28;20021;-77
2021/09/01 01:53:11;;;;;;;11.80;5.70;;;;;;;15.62;100.00;101649.81;5190744;28;20033;-77
2021/09/01 01:55:41;;;;;;;12.20;5.03;;;;;;;15.57;100.00;101644.69;5191262;28;20543;-78
2021/09/01 01:58:11;;;;;;;10.82;5.22;;;;;;;15.50;100.00;101639.75;5193574;28;20033;-80
2021/09/01 02:00:42;;;;;;;12.33;5.10;;;;;;;15.46;100.00;101641.66;5190808;28;20037;-79
2021/09/01 02:03:13;;;;;;;10.18;5.38;;;;;;;15.46;100.00;101640.78;5193428;28;20318;-78
2021/09/01 02:05:43;;;;;;;12.30;5.00;;;;;;;15.47;100.00;101643.34;5190518;28;20402;-78
2021/09/01 02:08:14;;;;;;;13.95;5.72;;;;;;;15.45;100.00;101642.56;5192979;28;20441;-79
2021/09/01 02:10:44;;;;;;;9.57;5.60;;;;;;;15.27;100.00;101645.88;5193533;28;20430;-79
2021/09/01 02:13:14;;;;;;;11.73;5.40;;;;;;;15.33;100.00;101656.19;5190340;28;20061;-80
2021/09/01 02:15:44;;;;;;;14.88;5.65;;;;;;;15.32;100.00;101645.72;5192927;28;20350;-78
2021/09/01 02:18:15;;;;;;;11.27;5.20;;;;;;;15.20;100.00;101643.50;5187204;28;20038;-77
2021/09/01 02:20:45;;;;;;;16.03;5.73;;;;;;;15.25;100.00;101646.81;5185272;28;20457;-77
2021/09/01 02:23:15;;;;;;;12.75;5.63;;;;;;;15.10;100.00;101645.63;5190544;28;20283;-77
2021/09/01 02:25:45;;;;;;;13.30;5.63;;;;;;;15.06;100.00;101646.66;5192993;28;20091;-78
2021/09/01 02:28:17;;;;;;;10.98;5.95;;;;;;;15.19;100.00;101650.53;5190522;28;20029;-80
2021/09/01 02:30:47;;;;;;;13.02;5.55;;;;;;;15.09;100.00;101646.56;5193709;28;20025;-78
2021/09/01 02:33:18;;;;;;;13.85;6.00;;;;;;;15.23;100.00;101657.44;5185598;28;20112;-78
2021/09/01 02:35:48;;;;;;;12.07;5.90;;;;;;;15.24;100.00;101653.88;5189774;28;20028;-78
2021/09/01 02:38:18;;;;;;;11.98;6.10;;;;;;;15.23;100.00;101654.81;5191819;28;20033;-78
2021/09/01 02:40:49;;;;;;;11.00;6.20;;;;;;;15.18;100.00;101659.38;5192620;28;20021;-80
2021/09/01 02:43:19;;;;;;;13.95;5.70;;;;;;;15.05;100.00;101654.63;5188656;28;20442;-79
2021/09/01 02:45:49;;;;;;;9.70;5.63;;;;;;;14.97;100.00;101657.53;5192547;28;20021;-80
2021/09/01 02:48:19;;;;;;;10.73;6.00;;;;;;;14.99;100.00;101660.97;5186406;28;20375;-80
2021/09/01 02:50:52;;;;;;;9.70;5.97;;;;;;;14.91;100.00;101665.66;5181816;28;20426;-79
2021/09/01 02:53:23;;;;;;;11.63;5.55;;;;;;;14.96;100.00;101660.19;5192724;28;20056;-78
2021/09/01 02:55:53;;;;;;;9.98;5.60;;;;;;;14.99;100.00;101671.50;5189405;28;20069;-78
2021/09/01 02:58:23;;;;;;;11.50;6.20;;;;;;;14.94;100.00;101662.91;5192390;28;20479;-77
2021/09/01 03:00:53;;;;;;;10.95;5.60;;;;;;;14.96;100.00;101657.56;5189756;28;20639;-78
2021/09/01 03:03:24;;;;;;;10.88;5.95;;;;;;;14.91;100.00;101660.38;5192116;28;20022;-80
2021/09/01 03:05:54;;;;;;;12.47;5.60;;;;;;;14.82;100.00;101656.34;5189793;28;20084;-79
2021/09/01 03:08:24;;;;;;;11.35;5.50;;;;;;;14.91;100.00;101655.13;5191635;28;20268;-78
2021/09/01 03:10:54;;;;;;;11.93;5.67;;;;;;;14.87;100.00;101657.91;5191672;28;20033;-79
2021/09/01 03:13:25;;;;;;;13.50;6.32;;;;;;;14.90;100.00;101648.16;5189841;28;20272;-78
2021/09/01 03:15:55;;;;;;;12.15;5.97;;;;;;;14.87;100.00;101660.53;5187398;28;20029;-78
2021/09/01 03:18:25;;;;;;;14.45;6.00;;;;;;;14.98;100.00;101656.59;5185354;28;20045;-81
2021/09/01 03:20:56;;;;;;;11.85;5.75;;;;;;;14.87;100.00;101658.75;5186174;28;20399;-79
2021/09/01 03:23:26;;;;;;;14.65;6.22;;;;;;;14.86;100.00;101664.94;5191587;28;20510;-79
2021/09/01 03:25:56;;;;;;;13.25;6.30;;;;;;;14.87;100.00;101665.81;5189545;28;20060;-77
2021/09/01 03:28:27;;;;;;;12.30;6.70;;;;;;;15.00;100.00;101667.94;5191324;28;20213;-80
2021/09/01 03:30:57;;;;;;;12.02;6.60;;;;;;;14.88;100.00;101668.38;5189579;28;20335;-77
2021/09/01 03:33:27;;;;;;;13.27;6.20;;;;;;;14.90;100.00;101665.69;5191476;28;20026;-78
2021/09/01 03:35:57;;;;;;;9.68;5.68;;;;;;;14.87;100.00;101669.28;5189645;28;20447;-79
2021/09/01 03:38:28;;;;;;;13.00;6.22;;;;;;;14.97;100.00;101667.19;5191267;28;20037;-78
2021/09/01 03:40:58;;;;;;;12.48;6.63;;;;;;;14.96;100.00;101666.34;5191118;28;20033;-79
2021/09/01 03:43:28;;;;;;;10.93;6.00;;;;;;;15.00;100.00;101664.47;5190054;28;20404;-79
2021/09/01 03:45:58;;;;;;;10.82;5.75;;;;;;;14.98;100.00;101669.78;5190770;28;20104;-79
2021/09/01 03:48:29;;;;;;;12.07;6.63;;;;;;;14.93;100.00;101661.19;5185326;28;20057;-79
2021/09/01 03:51:00;;;;;;;12.82;6.35;;;;;;;14.88;100.00;101662.25;5181834;28;20025;-79
2021/09/01 03:53:30;;;;;;;10.35;6.35;;;;;;;14.74;100.00;101661.03;5189584;28;20041;-78
2021/09/01 03:56:00;;;;;;;12.80;6.10;;;;;;;14.83;100.00;101659.78;5189730;28;20068;-80
2021/09/01 03:58:31;;;;;;;13.20;6.43;;;;;;;14.81;100.00;101655.50;5190768;28;20455;-78
2021/09/01 04:01:01;;;;;;;13.27;6.20;;;;;;;14.88;100.00;101663.09;5189022;28;20029;-78
2021/09/01 04:03:31;;;;;;;12.80;5.57;;;;;;;14.90;100.00;101661.31;5190358;28;20448;-78
2021/09/01 04:06:03;;;;;;;15.38;6.60;;;;;;;14.78;100.00;101660.84;5189757;28;20060;-79
2021/09/01 04:08:34;;;;;;;12.27;6.38;;;;;;;14.93;100.00;101668.22;5191434;28;20029;-78
2021/09/01 04:11:04;;;;;;;12.82;5.93;;;;;;;14.82;100.00;101674.78;5189932;28;20109;-78
2021/09/01 04:13:34;;;;;;;11.07;5.70;;;;;;;14.85;100.00;101673.75;5190695;28;20299;-78
2021/09/01 04:16:05;;;;;;;19.17;6.97;;;;;;;14.85;100.00;101678.16;5187737;28;20096;-79
2021/09/01 04:18:35;;;;;;;10.98;6.22;;;;;;;14.94;100.00;101688.34;5184812;28;20038;-79
2021/09/01 04:21:05;;;;;;;11.15;6.30;;;;;;;14.88;100.00;101684.16;5183132;28;20137;-80
2021/09/01 04:23:35;;;;;;;12.77;6.32;;;;;;;14.87;100.00;101685.06;5189496;28;20462;-79
2021/09/01 04:26:06;;;;;;;13.77;5.72;;;;;;;14.78;100.00;101687.19;5187178;28;20080;-82
2021/09/01 04:28:36;;;;;;;10.57;5.78;;;;;;;14.86;100.00;101688.63;5203207;22;20045;-79
2021/09/01 04:31:07;;;;;;;13.57;6.28;;;;;;;14.84;100.00;101690.47;5207984;28;20310;-80
2021/09/01 04:33:37;;;;;;;12.77;6.15;;;;;;;14.80;100.00;101700.28;5207897;28;20107;-80
2021/09/01 04:36:07;;;;;;;10.63;5.30;;;;;;;14.78;100.00;101694.22;5206113;28;20371;-79
2021/09/01 04:38:38;;;;;;;8.32;4.75;;;;;;;14.67;100.00;101696.38;5203537;28;20272;-79
2021/09/01 04:41:08;;;;;;;11.38;5.75;;;;;;;14.66;100.00;101694.66;5191570;28;20318;-79
2021/09/01 04:43:39;;;;;;;12.15;5.20;;;;;;;14.78;100.00;101697.72;5187201;28;20099;-80
2021/09/01 04:46:09;;;;;;;9.90;5.35;;;;;;;14.66;100.00;101697.28;5187019;28;20486;-79
2021/09/01 04:48:39;;;;;;;11.85;6.05;;;;;;;14.76;100.00;101696.06;5175201;28;20037;-80
2021/09/01 04:51:10;;;;;;;15.75;6.45;;;;;;;14.73;100.00;101698.81;5195143;28;20030;-79
2021/09/01 04:53:40;;;;;;;13.93;6.88;;;;;;;14.77;100.00;101692.50;5170922;28;20052;-79
2021/09/01 04:56:10;;;;;;;10.40;5.68;;;;;;;14.86;100.00;101700.94;5187513;28;20130;-79
2021/09/01 04:58:40;;;;;;;14.68;6.82;;;;;;;14.79;100.00;101702.06;5187042;28;20029;-80
2021/09/01 05:01:11;;;;;;;12.52;6.63;;;;;;;14.82;100.00;101708.09;5187325;28;20452;-79
2021/09/01 05:03:41;;;;;;;14.05;6.40;;;;;;;14.61;100.00;101699.22;5188612;28;20029;-80
2021/09/01 05:06:11;;;;;;;13.82;5.88;;;;;;;14.69;100.00;101702.44;5173202;28;20047;-79
2021/09/01 05:08:42;;;;;;;11.68;6.00;;;;;;;14.85;100.00;101705.34;5175566;28;20214;-80
2021/09/01 05:11:12;;;;;;;12.43;5.82;;;;;;;14.86;100.00;101707.06;5177500;28;20037;-80
2021/09/01 05:13:42;;;;;;;14.13;5.97;;;;;;;14.88;100.00;101720.19;5173450;28;20026;-79
2021/09/01 05:16:13;;;;;;;12.82;6.18;;;;;;;14.90;100.00;101719.22;5173353;28;20248;-80
2021/09/01 05:18:43;;;;;;;10.27;5.55;;;;;;;14.82;100.00;101721.25;5175455;28;20045;-80
2021/09/01 05:21:13;;;;;;;12.52;5.78;;;;;;;14.78;100.00;101729.28;5196495;28;20038;-80
2021/09/01 05:23:44;;;;;;;10.95;5.30;;;;;;;14.74;100.00;101727.69;5191365;28;20030;-79
2021/09/01 05:26:18;;;;;;;15.07;6.15;;;;;;;14.86;100.00;101738.66;5172920;28;20120;-79
2021/09/01 05:28:49;;;;;;;9.63;5.03;;;;;;;14.75;100.00;101728.56;5189491;28;20053;-79
2021/09/01 05:31:22;;;;;;;10.90;5.50;;;;;;;14.80;100.00;101742.41;5173221;28;20661;-79
2021/09/01 05:33:52;;;;;;;11.15;5.55;;;;;;;14.74;100.00;101746.09;5172961;28;20080;-79
2021/09/01 05:36:23;;;;;;;10.38;5.55;;;;;;;14.81;100.00;101747.63;5173476;28;20034;-79
2021/09/01 05:38:55;;;;;;;9.38;5.10;;;;;;;14.72;100.00;101757.59;5184158;28;20125;-79
2021/09/01 05:41:29;;;;;;;10.57;5.35;;;;;;;14.64;100.00;101757.00;5196431;28;20298;-79
2021/09/01 05:44:00;;;;;;;10.73;5.75;;;;;;;14.66;100.00;101763.94;5188834;28;20559;-80
2021/09/01 05:46:31;;;;;;;10.45;5.57;;;;;;;14.80;100.00;101755.56;5172504;28;20022;-79
2021/09/01 05:49:01;;;;;;;7.93;4.95;;;;;;;14.74;100.00;101761.06;5198394;28;20487;-79
2021/09/01 05:51:32;;;;;;;13.63;6.28;;;;;;;14.79;100.00;101756.50;5191193;28;20096;-79
2021/09/01 05:54:02;;;;;;;10.55;5.60;;;;;;;14.77;100.00;101768.84;5189588;28;20400;-79
2021/09/01 05:56:34;;;;;;;9.23;5.20;;;;;;;14.75;100.00;101765.41;5171755;28;20555;-79
2021/09/01 05:59:10;;;;;;;9.65;5.45;;;;;;;14.72;100.00;101763.72;5190496;28;20280;-79
2021/09/01 06:01:50;;;;;;;8.65;4.88;;;;;;;14.65;100.00;101766.59;5172320;28;20022;-79
2021/09/01 06:04:24;;;;;;;11.63;5.00;;;;;;;14.83;100.00;101759.81;5186816;28;20546;-79
2021/09/01 06:06:56;;;;;;;10.20;5.18;;;;;;;15.00;100.00;101761.88;5173711;28;20030;-79
2021/09/01 06:09:33;;;;;;;10.77;5.00;;;;;;;15.01;100.00;101758.34;5177757;28;20025;-80
2021/09/01 06:12:04;;;;;;;10.93;4.95;;;;;;;15.06;100.00;101759.91;5193247;28;20030;-79
2021/09/01 06:14:34;;;;;;;7.47;4.43;;;;;;;15.17;100.00;101764.78;5171874;28;20028;-79
2021/09/01 06:17:05;;;;;;;8.40;4.13;;;;;;;15.25;100.00;101768.88;5170200;28;20018;-79
2021/09/01 06:19:36;;;;;;;10.52;4.28;;;;;;;15.27;100.00;101766.16;5193890;28;20030;-79
2021/09/01 06:22:06;;;;;;;6.63;3.75;;;;;;;15.24;100.00;101764.53;5174781;28;20025;-79
2021/09/01 06:24:36;;;;;;;8.68;3.72;;;;;;;15.14;100.00;101764.88;5189797;28;20033;-79
2021/09/01 06:27:08;;;;;;;8.05;3.90;;;;;;;15.18;100.00;101762.06;5174320;28;20425;-79
2021/09/01 06:29:38;;;;;;;9.60;4.18;;;;;;;15.07;100.00;101759.00;5193647;28;20029;-79
2021/09/01 06:32:08;;;;;;;9.67;3.97;;;;;;;15.26;100.00;101757.41;5193500;28;20088;-79
2021/09/01 06:34:40;;;;;;;11.18;4.18;;;;;;;15.24;100.00;101750.47;5174472;28;20276;-80
2021/09/01 06:37:10;;;;;;;8.27;3.70;;;;;;;15.20;100.00;101760.25;5191873;28;20053;-79
2021/09/01 06:39:41;;;;;;;8.70;4.60;;;;;;;15.10;100.00;101758.88;5194113;28;20022;-79
2021/09/01 06:42:11;;;;;;;8.73;4.45;;;;;;;15.13;100.00;101757.88;5194446;28;20033;-79
2021/09/01 06:44:41;;;;;;;8.55;4.45;;;;;;;15.37;100.00;101759.69;5189377;28;20475;-79
2021/09/01 06:47:12;;;;;;;11.40;4.47;;;;;;;15.41;100.00;101762.16;5189260;28;20030;-79
2021/09/01 06:49:42;;;;;;;9.57;4.07;;;;;;;15.28;100.00;101762.59;5193025;28;20124;-79
2021/09/01 06:52:12;;;;;;;10.68;4.28;;;;;;;15.51;100.00;101753.00;5171486;28;20029;-79
2021/09/01 06:54:43;;;;;;;8.43;4.20;;;;;;;15.66;100.00;101757.69;5188032;28;20120;-79
2021/09/01 06:57:13;;;;;;;11.27;4.80;;;;;;;15.54;100.00;101762.56;5170894;28;20034;-79
2021/09/01 06:59:43;;;;;;;8.30;4.10;;;;;;;15.65;100.00;101768.28;5184265;28;20029;-79
2021/09/01 07:02:14;;;;;;;7.73;4.23;;;;;;;15.61;100.00;101772.84;5171234;28;20132;-78
2021/09/01 07:04:44;;;;;;;11.53;4.53;;;;;;;15.60;100.00;101770.25;5189450;28;20360;-79
2021/09/01 07:07:14;;;;;;;11.32;4.60;;;;;;;15.44;100.00;101775.22;5171071;28;20277;-79
2021/09/01 07:09:44;;;;;;;10.68;5.00;;;;;;;15.42;100.00;101777.06;5193646;28;20484;-79
2021/09/01 07:12:15;;;;;;;9.98;4.13;;;;;;;15.46;100.00;101776.03;5178831;28;20302;-79
2021/09/01 07:14:45;;;;;;;10.77;4.40;;;;;;;15.53;100.00;101764.34;5171760;28;20093;-79
2021/09/01 07:17:15;;;;;;;11.65;4.90;;;;;;;15.57;100.00;101775.63;5171689;28;20033;-79
2021/09/01 07:19:46;;;;;;;8.73;4.18;;;;;;;15.56;100.00;101769.47;5177743;28;20026;-79
2021/09/01 07:22:16;;;;;;;10.15;4.32;;;;;;;15.65;100.00;101774.44;5173771;28;20543;-80
2021/09/01 07:24:46;;;;;;;11.93;5.00;;;;;;;15.69;100.00;101781.31;5189813;28;20026;-79
2021/09/01 07:27:17;;;;;;;12.40;4.95;;;;;;;15.65;100.00;101786.72;5189403;28;20280;-78
2021/09/01 07:29:47;;;;;;;10.30;4.90;;;;;;;15.70;100.00;101793.56;5171003;28;20032;-78
2021/09/01 07:32:17;;;;;;;12.68;5.65;;;;;;;15.66;100.00;101791.97;5181789;28;20030;-79
2021/09/01 07:34:48;;;;;;;14.80;5.85;;;;;;;15.73;100.00;101793.44;5171538;28;20026;-79
2021/09/01 07:37:19;;;;;;;11.40;5.78;;;;;;;15.77;100.00;101797.72;5189522;28;20033;-80
2021/09/01 07:39:49;;;;;;;12.75;5.45;;;;;;;15.99;100.00;101788.06;5192428;28;20030;-79
2021/09/01 07:42:19;;;;;;;9.60;4.88;;;;;;;16.07;100.00;101791.25;5172006;28;20061;-79
2021/09/01 07:44:50;;;;;;;11.57;5.20;;;;;;;16.31;100.00;101800.88;5171493;28;20034;-79
2021/09/01 07:47:20;;;;;;;9.25;4.95;;;;;;;16.19;100.00;101801.34;5189502;28;20511;-79
2021/09/01 07:49:50;;;;;;;12.80;5.30;;;;;;;16.21;100.00;101801.28;5190225;28;20029;-79
2021/09/01 07:52:20;;;;;;;10.57;4.13;;;;;;;16.25;100.00;101802.88;5190789;28;20268;-79
2021/09/01 07:54:51;;;;;;;10.23;3.80;;;;;;;16.42;100.00;101809.22;5170517;28;20085;-79
2021/09/01 07:57:21;;;;;;;8.93;4.05;;;;;;;16.48;100.00;101801.09;5170941;28;20486;-79
2021/09/01 07:59:52;;;;;;;9.70;4.43;;;;;;;16.61;100.00;101806.72;5170566;28;20499;-79
2021/09/01 08:02:22;;;;;;;7.32;3.42;;;;;;;16.72;100.00;101804.50;5170733;28;20106;-79
2021/09/01 08:04:52;;;;;;;11.50;3.70;;;;;;;16.74;99.99;101808.78;5170533;28;20464;-79
2021/09/01 08:07:23;;;;;;;10.98;4.40;;;;;;;16.78;100.00;101811.25;5188897;28;20373;-79
2021/09/01 08:09:53;;;;;;;11.52;4.50;;;;;;;16.93;100.00;101804.47;5177889;28;20034;-79
2021/09/01 08:12:23;;;;;;;12.23;4.20;;;;;;;16.83;99.92;101808.41;5174611;28;20033;-79
2021/09/01 08:14:54;;;;;;;13.30;4.72;;;;;;;16.68;99.78;101811.69;5171346;28;20040;-79
2021/09/01 08:17:24;;;;;;;9.32;3.85;;;;;;;16.72;100.00;101818.56;5171094;28;20500;-79
2021/09/01 08:19:55;;;;;;;11.32;3.63;;;;;;;17.00;100.00;101827.91;5177499;28;20029;-79
2021/09/01 08:22:25;;;;;;;8.95;4.32;;;;;;;17.13;99.09;101820.34;5173915;28;20617;-79
2021/09/01 08:24:55;;;;;;;8.70;3.38;;;;;;;17.17;97.72;101827.22;5189109;28;20448;-79
2021/09/01 08:27:26;;;;;;;8.48;3.63;;;;;;;17.23;96.74;101830.47;5189294;28;20042;-79
2021/09/01 08:29:56;;;;;;;9.48;3.90;;;;;;;17.29;98.47;101826.69;5189395;28;20044;-79
2021/09/01 08:32:27;;;;;;;11.43;4.25;;;;;;;17.13;97.44;101826.47;5189200;28;20030;-79
2021/09/01 08:34:57;;;;;;;12.15;4.35;;;;;;;17.48;96.75;101831.13;5187548;28;20041;-79
2021/09/01 08:37:27;;;;;;;11.55;4.28;;;;;;;17.53;96.02;101828.28;5171092;28;20509;-79
2021/09/01 08:40:00;;;;;;;9.48;4.03;;;;;;;17.61;96.31;101834.97;5180756;28;20036;-79
2021/09/01 08:42:31;;;;;;;9.02;3.78;;;;;;;17.36;96.88;101833.47;5194539;28;20041;-79
2021/09/01 08:45:03;;;;;;;8.95;3.50;;;;;;;17.36;98.36;101847.56;5175048;28;20342;-79
2021/09/01 08:47:35;;;;;;;7.13;3.85;;;;;;;16.96;97.76;101851.91;5174384;28;20522;-78
2021/09/01 08:50:07;;;;;;;12.77;4.28;;;;;;;17.45;95.71;101841.84;5180495;28;20281;-79
2021/09/01 08:52:38;;;;;;;10.85;3.90;;;;;;;17.81;95.01;101836.72;5192193;28;20068;-79
2021/09/01 08:55:11;;;;;;;12.95;4.55;;;;;;;17.80;94.25;101838.50;5191839;28;20034;-79
2021/09/01 08:57:42;;;;;;;9.95;3.75;;;;;;;18.18;93.23;101828.81;5192430;28;20049;-79
2021/09/01 09:00:13;;;;;;;9.68;4.13;;;;;;;18.55;92.68;101821.72;5193097;28;20064;-79
2021/09/01 09:02:57;;;;;;;9.15;3.80;;;;;;;19.13;89.34;101817.91;5191913;28;20117;-79
2021/09/01 09:05:36;;;;;;;7.07;3.22;;;;;;;19.12;89.13;101822.31;5191233;28;20025;-79
2021/09/01 09:08:08;;;;;;;7.55;3.33;;;;;;;19.04;89.27;101828.94;5177785;28;20109;-79
2021/09/01 09:10:40;;;;;;;7.88;3.60;;;;;;;18.98;88.50;101827.50;5181192;28;20065;-80
2021/09/01 09:13:11;;;;;;;10.77;3.83;;;;;;;18.76;90.99;101825.97;5192357;28;20032;-79
2021/09/01 09:15:42;;;;;;;9.27;3.65;;;;;;;18.82;90.26;101821.25;5192214;28;20100;-79
2021/09/01 09:18:30;;;;;;;10.57;4.13;;;;;;;18.73;90.49;101825.25;5182856;28;20036;-79
2021/09/01 09:21:19;;;;;;;9.93;3.90;;;;;;;18.71;91.59;101819.19;5200674;28;20266;-79
2021/09/01 09:23:51;;;;;;;12.00;4.30;;;;;;;18.77;90.95;101825.88;5191366;28;20026;-78
2021/09/01 09:26:30;;;;;;;8.90;3.70;;;;;;;18.71;90.73;101820.03;5192754;28;20083;-79
2021/09/01 09:29:14;;;;;;;7.57;3.85;;;;;;;18.96;90.37;101817.91;5175104;28;20022;-79
2021/09/01 09:31:57;;;;;;;8.90;4.03;;;;;;;19.20;89.88;101820.19;5192767;28;20053;-79
2021/09/01 09:34:39;;;;;;;6.63;3.30;;;;;;;19.11;89.85;101819.78;5189778;28;20033;-79
2021/09/01 09:37:12;;;;;;;8.55;4.03;;;;;;;18.97;89.64;101825.75;5175285;28;20423;-79
2021/09/01 09:39:47;;;;;;;9.05;4.03;;;;;;;19.34;88.72;101817.69;5179217;28;20052;-80
2021/09/01 09:42:38;;;;;;;8.10;3.25;;;;;;;19.28;87.26;101818.00;5195107;28;20025;-79
2021/09/01 09:45:24;;;;;;;8.85;4.13;;;;;;;19.77;86.64;101822.44;5175076;28;20030;-80
2021/09/01 09:47:55;;;;;;;7.72;3.63;;;;;;;19.91;86.85;101825.22;5182343;28;20431;-80
2021/09/01 09:50:26;;;;;;;8.60;4.15;;;;;;;19.61;86.93;101820.69;5182690;28;20037;-80
2021/09/01 09:52:57;;;;;;;7.75;4.07;;;;;;;19.45;87.00;101820.63;5175395;28;20096;-79
2021/09/01 09:55:27;;;;;;;10.88;4.72;;;;;;;20.06;85.49;101820.91;5175295;28;20462;-80
2021/09/01 09:58:02;;;;;;;7.93;3.80;;;;;;;20.44;83.87;101828.47;5192565;28;20021;-80
2021/09/01 10:00:33;;;;;;;14.02;4.25;;;;;;;20.19;84.41;101825.47;5188905;28;20635;-79
2021/09/01 10:03:03;;;;;;;8.13;4.07;;;;;;;20.32;84.79;101821.16;5177342;28;20034;-80
2021/09/01 10:05:33;;;;;;;12.93;4.30;;;;;;;20.25;85.41;101830.44;5174239;28;20304;-80
2021/09/01 10:08:04;;;;;;;8.80;3.90;;;;;;;19.94;85.43;101825.03;5172670;28;20038;-79
2021/09/01 10:10:34;;;;;;;8.25;3.80;;;;;;;19.92;84.62;101828.75;5180323;28;20034;-79
2021/09/01 10:13:09;;;;;;;6.82;4.05;;;;;;;19.84;85.19;101821.19;5192114;28;20037;-79
2021/09/01 10:15:41;;;;;;;8.90;4.43;;;;;;;20.07;85.88;101827.91;5173965;28;20037;-79
2021/09/01 10:18:12;;;;;;;9.77;4.50;;;;;;;20.15;84.86;101818.59;5177404;28;20038;-81
2021/09/01 10:20:45;;;;;;;9.07;4.00;;;;;;;20.20;85.13;101821.88;5179873;28;20423;-80
2021/09/01 10:23:15;;;;;;;10.90;4.65;;;;;;;20.14;85.15;101808.91;5174339;28;20034;-79
2021/09/01 10:25:51;;;;;;;14.95;5.25;;;;;;;20.39;85.12;101813.72;5185873;28;20550;-79
2021/09/01 10:28:22;;;;;;;9.60;4.80;;;;;;;19.78;85.69;101813.53;5158581;28;20022;-80
2021/09/01 10:31:12;;;;;;;9.65;4.82;;;;;;;19.75;85.35;101808.41;5276013;23;20591;-78
2021/09/01 10:33:48;;;;;;;9.48;4.38;;;;;;;19.92;85.70;101813.66;5197893;28;20391;-78
2021/09/01 10:36:24;;;;;;;8.98;4.43;;;;;;;20.03;85.09;101818.41;5186144;28;20025;-80
2021/09/01 10:39:30;;;;;;;8.30;4.22;;;;;;;20.01;86.00;101815.81;5187866;28;20391;-79
2021/09/01 10:42:32;;;;;;;8.13;4.22;;;;;;;20.19;84.02;101809.53;5160687;28;20065;-79
2021/09/01 10:45:06;;;;;;;8.82;4.05;;;;;;;20.39;84.86;101811.94;5169325;28;20062;-79
2021/09/01 10:47:51;;;;;;;9.80;4.60;;;;;;;20.63;84.32;101815.84;5169333;28;20117;-79
2021/09/01 10:50:24;;;;;;;8.02;3.63;;;;;;;20.85;82.91;101813.69;5173415;28;20054;-79
2021/09/01 10:53:18;;;;;;;9.05;4.20;;;;;;;20.72;81.63;101802.88;5171697;28;20112;-80
2021/09/01 10:56:03;;;;;;;10.93;4.32;;;;;;;20.51;83.35;101805.06;5160118;28;20030;-79
2021/09/01 10:58:36;;;;;;;8.00;3.80;;;;;;;20.41;83.87;101814.47;5162824;28;20150;-79
2021/09/01 11:01:08;;;;;;;8.02;4.00;;;;;;;20.54;84.13;101812.84;5164688;28;20022;-79
2021/09/01 11:03:47;;;;;;;9.70;4.03;;;;;;;20.46;82.65;101818.59;5168493;28;20088;-79
2021/09/01 11:06:19;;;;;;;8.88;4.00;;;;;;;20.35;83.77;101815.72;5169649;28;20030;-78
2021/09/01 11:09:03;;;;;;;7.35;3.97;;;;;;;20.30;85.42;101817.75;5167659;28;20080;-78
2021/09/01 11:11:46;;;;;;;7.35;4.13;;;;;;;20.49;84.27;101821.06;5169093;28;20116;-80
2021/09/01 11:14:51;;;;;;;7.75;3.78;;;;;;;19.91;86.91;101811.94;5173596;28;20030;-80
2021/09/01 11:17:23;;;;;;;7.75;4.40;;;;;;;20.13;85.59;101811.66;5138257;28;20038;-78
2021/09/01 11:20:00;;;;;;;10.00;4.47;;;;;;;20.21;85.04;101810.31;5165480;28;20038;-80
2021/09/01 11:22:36;;;;;;;9.80;4.50;;;;;;;20.23;84.86;101805.75;5169324;28;20025;-80
2021/09/01 11:25:15;;;;;;;8.98;4.10;;;;;;;20.40;86.10;101803.03;5170404;28;20069;-77
2021/09/01 11:27:57;;;;;;;10.68;4.55;;;;;;;20.35;83.40;101805.09;5169063;28;20480;-79
2021/09/01 11:30:34;;;;;;;8.75;4.40;;;;;;;20.45;85.78;101806.25;5166543;28;20034;-79
2021/09/01 11:33:04;;;;;;;7.93;4.30;;;;;;;20.68;82.96;101801.34;5170213;28;20495;-78
2021/09/01 11:35:36;;;;;;;11.80;4.47;;;;;;;20.70;84.25;101798.63;5169982;28;20130;-79
2021/09/01 11:38:08;;;;;;;12.80;5.00;;;;;;;20.91;83.96;101800.91;5171619;28;20308;-79